Portada
METAR-TAF:

METAR-TAF

Aeroports :

Key West, Florida, Estats Units d'Amèrica

latitud: 24-33-13N, longitud: 081-45-13W, altitud: 1 m

Observació

L'informe es va fer fa 14 minuts, a les 19:53 UTC
Vent 3 kt amb direcció variable
Temperatura 23°C
Humitat 73%
Pressió 1011 hPa
Visibilitat: 16.1 km
Núvols disperses a una alçada de 3000 ft

METAR: KEYW 181953Z VRB03KT 10SM SCT030 23/18 A2985 RMK AO2 SLP107 T02330178

Hora: 15:07 (20:07 UTC)

Pronòstic

L'informe es va fer fa 2 hores i 43 minuts, a les 17:24 UTC
Pronòstic vàlid del 18 a les 18 UTC al 19 a les 18 UTC
Vent 6 kt del Nord
Visibilitat: 10 km
Núvols disperses a una alçada de 2000 ft
Núvols disperses a una alçada de 4000 ft
Cel ennuvolat a una alçada de 5000 ft
A partir de les 19 a les 0200 UTC
Vent 7 kt del Oest/Nord-Oest
Visibilitat: 10 km
Escasses núvols a una alçada de 2500 ft
Núvols disperses a una alçada de 5000 ft

TAF: KEYW 181724Z 1818/1918 36006KT P6SM SCT020 SCT040 BKN050 FM190200 30007KT P6SM FEW025 SCT050

Observacions i pronòstics meteorològics de més de 4000 aeroports (METAR i TAF).

Les estacions disponibles són els punts grocs i vermells al mapa.

Posi el ratolí al punt desitjat per veure el nom de l'estació.

Feu clic per veure les observacions i els pronòstics meteorològics.

Per canviar el mapa: feu clic els botons verds amb una creu de color negre per apropar; al botó verd amb un guió per allunyar la imatge; o en les fletxes verdes per a mapes adjacents.


METAR-TAF: